createdAt,value
2023-05-19T00:00:47.556Z,0.80
2023-05-19T00:03:15.281Z,0.75
2023-05-19T00:05:45.507Z,0.85
2023-05-19T00:08:14.059Z,0.90
2023-05-19T00:10:40.926Z,0.90
2023-05-19T00:13:08.143Z,0.82
2023-05-19T00:15:35.414Z,0.75
2023-05-19T00:18:02.091Z,1.00
2023-05-19T00:20:28.713Z,0.85
2023-05-19T00:22:55.501Z,0.80
2023-05-19T00:25:22.071Z,1.23
2023-05-19T00:27:49.053Z,0.75
2023-05-19T00:30:15.861Z,0.70
2023-05-19T00:32:42.430Z,1.13
2023-05-19T00:35:09.434Z,0.80
2023-05-19T00:37:36.003Z,1.00
2023-05-19T00:40:02.596Z,0.95
2023-05-19T00:42:29.164Z,0.80
2023-05-19T00:44:55.970Z,0.60
2023-05-19T00:47:22.579Z,0.90
2023-05-19T00:49:49.166Z,1.08
2023-05-19T00:52:15.702Z,1.40
2023-05-19T00:54:43.458Z,0.80
2023-05-19T00:57:10.405Z,0.93
2023-05-19T00:59:37.236Z,0.75
2023-05-19T01:02:03.898Z,0.90
2023-05-19T01:04:34.903Z,0.90
2023-05-19T01:07:01.684Z,0.80
2023-05-19T01:09:28.370Z,0.93
2023-05-19T01:11:54.936Z,0.70
2023-05-19T01:14:21.832Z,0.80
2023-05-19T01:17:23.940Z,0.88
2023-05-19T01:20:22.114Z,0.88
2023-05-19T01:23:05.141Z,0.70
2023-05-19T01:25:53.316Z,0.57
2023-05-19T01:28:36.876Z,0.85
2023-05-19T01:31:06.259Z,0.80
2023-05-19T01:33:55.302Z,1.30
2023-05-19T01:36:58.192Z,1.00
2023-05-19T01:39:36.356Z,0.90
2023-05-19T01:42:29.686Z,0.82
2023-05-19T01:45:20.057Z,0.70
2023-05-19T01:47:58.185Z,0.70
2023-05-19T01:56:30.435Z,0.70
2023-05-19T02:02:43.856Z,0.82
2023-05-19T02:06:03.416Z,0.70
2023-05-19T02:09:02.266Z,0.70
2023-05-19T02:11:47.704Z,0.70
2023-05-19T02:14:50.254Z,0.70
2023-05-19T02:17:28.942Z,0.70
2023-05-19T02:20:10.614Z,1.05
2023-05-19T02:22:48.408Z,0.90
2023-05-19T02:25:34.651Z,0.80
2023-05-19T02:30:56.383Z,0.80
2023-05-19T02:33:34.224Z,0.60
2023-05-19T02:36:18.970Z,0.75
2023-05-19T02:39:17.798Z,0.90
2023-05-19T02:41:47.709Z,0.80
2023-05-19T02:44:20.444Z,0.80
2023-05-19T02:46:48.597Z,0.88
2023-05-19T02:49:46.270Z,1.05
2023-05-19T02:52:17.467Z,0.80
2023-05-19T03:00:42.600Z,0.80
2023-05-19T03:06:09.584Z,0.90
2023-05-19T03:08:42.620Z,0.90
2023-05-19T03:11:22.295Z,0.85
2023-05-19T03:13:51.698Z,0.80
2023-05-19T03:16:31.559Z,0.95
2023-05-19T03:19:05.310Z,0.80
2023-05-19T03:21:42.795Z,1.20
2023-05-19T03:24:12.376Z,0.70
2023-05-19T03:26:47.111Z,0.77
2023-05-19T03:29:26.656Z,1.00
2023-05-19T03:32:09.192Z,0.70
2023-05-19T03:34:44.625Z,0.80
2023-05-19T03:37:46.714Z,0.85
2023-05-19T03:40:23.847Z,0.70
2023-05-19T03:43:02.602Z,0.80
2023-05-19T03:45:36.218Z,1.10
2023-05-19T03:48:24.829Z,0.60
2023-05-19T03:50:54.301Z,0.77
2023-05-19T03:54:03.593Z,0.88
2023-05-19T03:56:30.409Z,0.82
2023-05-19T03:59:06.018Z,0.90
2023-05-19T04:01:50.954Z,1.00
2023-05-19T04:04:24.295Z,1.10
2023-05-19T04:07:07.348Z,0.90
2023-05-19T04:09:53.785Z,0.80
2023-05-19T04:12:35.056Z,0.95
2023-05-19T04:20:45.499Z,1.00
2023-05-19T04:25:54.519Z,0.90
2023-05-19T04:28:45.684Z,1.20
2023-05-19T04:31:26.076Z,0.88
2023-05-19T04:34:08.333Z,1.20
2023-05-19T04:36:37.660Z,1.02
2023-05-19T04:42:05.373Z,1.10
2023-05-19T04:44:35.212Z,1.20
2023-05-19T04:47:04.931Z,1.10
2023-05-19T04:49:43.518Z,1.27
2023-05-19T04:52:30.850Z,1.20
2023-05-19T05:01:03.334Z,0.95
2023-05-19T05:03:38.764Z,0.85
2023-05-19T05:09:27.229Z,1.00
2023-05-19T05:12:01.374Z,1.20
2023-05-19T05:14:38.786Z,1.00
2023-05-19T05:17:06.325Z,0.93
2023-05-19T05:19:51.070Z,0.90
2023-05-19T05:22:33.337Z,1.20
2023-05-19T05:25:06.678Z,0.90
2023-05-19T05:27:40.984Z,0.82
2023-05-19T05:33:02.821Z,0.90
2023-05-19T05:35:33.941Z,1.00
2023-05-19T05:38:18.897Z,1.33
2023-05-19T05:40:49.904Z,0.80
2023-05-19T05:43:25.280Z,0.90
2023-05-19T05:45:56.946Z,1.00
2023-05-19T05:48:40.440Z,1.00
2023-05-19T05:52:06.211Z,1.05
2023-05-19T05:54:34.790Z,0.82
2023-05-19T05:57:11.145Z,0.82
2023-05-19T05:59:51.627Z,0.80
2023-05-19T06:02:25.579Z,0.90
2023-05-19T06:04:59.830Z,0.93
2023-05-19T06:07:32.028Z,0.85
2023-05-19T06:10:12.952Z,0.80
2023-05-19T06:15:49.594Z,1.10
2023-05-19T06:18:37.529Z,1.00
2023-05-19T06:21:13.024Z,0.90
2023-05-19T06:24:06.476Z,0.90
2023-05-19T06:26:49.836Z,0.75
2023-05-19T06:29:23.644Z,1.00
2023-05-19T06:32:07.074Z,0.90
2023-05-19T06:34:38.434Z,0.60
2023-05-19T06:37:24.572Z,0.90
2023-05-19T06:39:58.725Z,0.70
2023-05-19T06:42:33.051Z,0.70
2023-05-19T06:45:07.394Z,0.80
2023-05-19T06:50:44.434Z,0.82
2023-05-19T06:56:12.549Z,0.80
2023-05-19T06:59:10.559Z,1.02
2023-05-19T07:01:40.226Z,1.00
2023-05-19T07:04:09.759Z,0.88
2023-05-19T07:06:47.113Z,0.80
2023-05-19T07:09:16.443Z,1.10
2023-05-19T07:14:31.499Z,1.05
2023-05-19T07:17:09.632Z,1.40
2023-05-19T07:19:44.694Z,1.40
2023-05-19T07:22:17.324Z,1.40
2023-05-19T07:25:37.069Z,1.33
2023-05-19T07:29:23.995Z,1.05
2023-05-19T07:34:46.681Z,1.05
2023-05-19T07:43:41.306Z,1.20
2023-05-19T07:49:04.189Z,1.17
2023-05-19T07:51:53.813Z,1.17
2023-05-19T07:57:34.228Z,0.98
2023-05-19T08:03:07.302Z,1.20
2023-05-19T08:05:46.037Z,1.13
2023-05-19T08:08:24.179Z,1.13
2023-05-19T08:10:58.737Z,1.30
2023-05-19T08:13:50.310Z,1.23
2023-05-19T08:16:36.751Z,1.10
2023-05-19T08:19:07.982Z,0.90
2023-05-19T08:21:38.155Z,1.25
2023-05-19T08:24:16.928Z,0.95
2023-05-19T08:26:54.531Z,1.08
2023-05-19T08:29:24.285Z,0.93
2023-05-19T08:32:40.847Z,1.10
2023-05-19T08:34:57.910Z,0.90
2023-05-19T08:37:54.081Z,1.35
2023-05-19T08:43:07.231Z,1.05
2023-05-19T08:45:46.881Z,1.20
2023-05-19T08:51:37.836Z,1.20
2023-05-19T08:54:54.100Z,1.45
2023-05-19T09:00:49.744Z,1.10
2023-05-19T09:03:34.711Z,1.33
2023-05-19T09:06:03.973Z,1.08
2023-05-19T09:08:59.883Z,1.10
2023-05-19T09:14:55.498Z,0.95
2023-05-19T09:20:28.844Z,1.05
2023-05-19T09:23:18.893Z,1.10
2023-05-19T09:26:11.079Z,1.20
2023-05-19T09:29:03.077Z,0.80
2023-05-19T09:31:50.754Z,0.90
2023-05-19T09:37:39.500Z,0.90
2023-05-19T09:40:59.701Z,1.00
2023-05-19T09:50:17.369Z,0.93
2023-05-19T09:53:06.007Z,1.00
2023-05-19T09:59:24.810Z,0.93
2023-05-19T10:02:33.853Z,0.63
2023-05-19T10:05:15.730Z,0.75
2023-05-19T10:08:22.222Z,0.90
2023-05-19T10:11:40.221Z,0.88
2023-05-19T10:17:08.948Z,0.90
2023-05-19T10:33:14.379Z,0.90
2023-05-19T10:36:23.476Z,1.00
2023-05-19T10:48:41.544Z,0.75
2023-05-19T10:54:20.121Z,0.90
2023-05-19T11:00:32.099Z,0.70
2023-05-19T11:03:44.579Z,1.00
2023-05-19T11:12:55.035Z,0.75
2023-05-19T11:15:43.293Z,1.20
2023-05-19T11:18:21.340Z,1.02
2023-05-19T11:21:12.597Z,0.85
2023-05-19T11:24:33.944Z,0.90
2023-05-19T11:27:23.598Z,0.77
2023-05-19T11:33:10.449Z,0.75
2023-05-19T11:35:52.556Z,0.85
2023-05-19T11:38:30.491Z,0.68
2023-05-19T11:41:10.392Z,1.08
2023-05-19T11:44:00.480Z,1.02
2023-05-19T11:59:04.751Z,0.70
2023-05-19T12:04:41.888Z,0.80
2023-05-19T12:07:29.260Z,0.88
2023-05-19T12:13:16.677Z,1.00
2023-05-19T12:19:37.080Z,0.90
2023-05-19T12:22:11.366Z,0.75
2023-05-19T12:25:28.086Z,1.00
2023-05-19T12:32:13.814Z,0.88
2023-05-19T12:38:09.731Z,1.00
2023-05-19T12:48:04.697Z,0.98
2023-05-19T12:51:00.568Z,1.00
2023-05-19T12:54:19.883Z,0.90
2023-05-19T12:57:32.372Z,0.98
2023-05-19T13:03:27.719Z,0.93
2023-05-19T13:06:02.304Z,0.73
2023-05-19T13:16:29.075Z,0.77
2023-05-19T13:19:43.555Z,0.93
2023-05-19T13:29:10.150Z,0.70
2023-05-19T13:35:26.577Z,0.93
2023-05-19T13:38:20.813Z,1.50
2023-05-19T13:47:04.137Z,0.88
2023-05-19T13:50:49.194Z,0.98
2023-05-19T13:53:59.437Z,0.95
2023-05-19T13:56:31.655Z,1.08
2023-05-19T13:59:19.344Z,0.90
2023-05-19T14:01:56.209Z,0.90
2023-05-19T14:04:36.470Z,1.00
2023-05-19T14:07:28.410Z,1.00
2023-05-19T14:10:22.930Z,0.88
2023-05-19T14:16:32.906Z,0.98
2023-05-19T14:19:49.271Z,1.00
2023-05-19T14:22:18.391Z,1.00
2023-05-19T14:30:20.197Z,1.02
2023-05-19T14:32:46.981Z,1.15
2023-05-19T14:36:11.773Z,0.82
2023-05-19T14:42:46.602Z,1.20
2023-05-19T14:45:25.859Z,0.95
2023-05-19T14:50:59.568Z,1.13
2023-05-19T14:53:29.040Z,1.08
2023-05-19T14:56:06.914Z,1.10
2023-05-19T14:58:42.455Z,1.30
2023-05-19T15:04:23.166Z,1.60
2023-05-19T15:10:05.262Z,1.15
2023-05-19T15:12:44.746Z,1.30
2023-05-19T15:16:16.210Z,1.33
2023-05-19T15:19:16.434Z,1.13
2023-05-19T15:21:53.646Z,1.30
2023-05-19T15:24:23.042Z,1.40
2023-05-19T15:27:01.150Z,1.52
2023-05-19T15:29:37.944Z,1.48
2023-05-19T15:32:13.019Z,1.17
2023-05-19T15:34:49.884Z,1.58
2023-05-19T15:47:03.080Z,1.20
2023-05-19T15:49:57.183Z,1.27
2023-05-19T15:52:37.912Z,1.40
2023-05-19T16:00:10.949Z,1.25
2023-05-19T16:01:53.009Z,1.20
2023-05-19T16:04:40.949Z,1.50
2023-05-19T16:07:16.552Z,1.60
2023-05-19T16:10:28.001Z,1.45
2023-05-19T16:13:10.338Z,1.45
2023-05-19T16:19:03.455Z,1.45
2023-05-19T16:24:39.867Z,1.30
2023-05-19T16:27:22.373Z,1.88
2023-05-19T16:30:25.602Z,1.40
2023-05-19T16:38:48.090Z,1.40
2023-05-19T16:41:21.835Z,1.10
2023-05-19T16:44:19.082Z,1.15
2023-05-19T16:46:51.298Z,1.30
2023-05-19T16:50:26.958Z,1.60
2023-05-19T16:55:50.955Z,1.55
2023-05-19T16:58:17.640Z,1.40
2023-05-19T17:03:48.907Z,1.60
2023-05-19T17:06:19.170Z,1.40
2023-05-19T17:12:36.705Z,1.25
2023-05-19T17:18:10.832Z,1.60
2023-05-19T17:21:18.052Z,1.15
2023-05-19T17:24:04.821Z,1.80
2023-05-19T17:30:18.855Z,1.45
2023-05-19T17:33:02.003Z,1.42
2023-05-19T17:38:35.553Z,1.50
2023-05-19T17:47:06.434Z,1.58
2023-05-19T17:55:10.048Z,1.70
2023-05-19T17:57:44.751Z,1.60
2023-05-19T18:00:19.629Z,1.80
2023-05-19T18:02:54.359Z,1.40
2023-05-19T18:05:27.166Z,1.43
2023-05-19T18:14:08.190Z,1.52
2023-05-19T18:16:45.636Z,1.30
2023-05-19T18:19:14.559Z,1.77
2023-05-19T18:26:57.890Z,1.52
2023-05-19T18:29:28.134Z,1.70
2023-05-19T18:32:07.790Z,1.80
2023-05-19T18:38:26.397Z,1.52
2023-05-19T18:41:19.089Z,1.40
2023-05-19T18:44:14.494Z,1.85
2023-05-19T18:47:01.440Z,1.45
2023-05-19T18:49:28.068Z,1.70
2023-05-19T18:51:54.640Z,1.67
2023-05-19T18:54:21.870Z,1.73
2023-05-19T18:56:48.506Z,1.45
2023-05-19T18:59:15.055Z,1.80
2023-05-19T19:01:42.877Z,1.50
2023-05-19T19:04:09.764Z,1.90
2023-05-19T19:06:36.499Z,2.20
2023-05-19T19:09:03.430Z,1.60
2023-05-19T19:11:30.038Z,1.30
2023-05-19T19:13:56.700Z,2.05
2023-05-19T19:16:23.552Z,1.60
2023-05-19T19:18:50.321Z,1.65
2023-05-19T19:21:19.278Z,1.70
2023-05-19T19:23:46.118Z,1.45
2023-05-19T19:26:12.700Z,1.70
2023-05-19T19:28:39.296Z,2.10
2023-05-19T19:31:05.941Z,1.67
2023-05-19T19:33:32.671Z,1.55
2023-05-19T19:35:59.288Z,1.73
2023-05-19T19:38:25.918Z,1.33
2023-05-19T19:40:52.628Z,1.00
2023-05-19T19:43:19.262Z,1.42
2023-05-19T19:45:45.905Z,1.17
2023-05-19T19:48:12.529Z,1.13
2023-05-19T19:50:39.167Z,1.00
2023-05-19T19:53:05.730Z,1.30
2023-05-19T19:55:32.485Z,1.23
2023-05-19T19:57:59.060Z,1.00
2023-05-19T20:00:25.926Z,1.20
2023-05-19T20:03:04.288Z,1.10
2023-05-19T20:05:32.526Z,1.25
2023-05-19T20:07:59.280Z,1.02
2023-05-19T20:10:25.975Z,0.93
2023-05-19T20:12:52.737Z,1.10
2023-05-19T20:15:19.363Z,1.02
2023-05-19T20:17:46.267Z,0.80
2023-05-19T20:20:13.337Z,1.10
2023-05-19T20:22:40.216Z,1.20
2023-05-19T20:25:07.298Z,1.40
2023-05-19T20:27:33.967Z,1.13
2023-05-19T20:30:00.772Z,1.25
2023-05-19T20:32:27.537Z,1.23
2023-05-19T20:34:54.204Z,1.20
2023-05-19T20:37:22.131Z,1.10
2023-05-19T20:39:48.865Z,1.23
2023-05-19T20:42:15.574Z,1.17
2023-05-19T20:44:42.517Z,1.10
2023-05-19T20:47:09.146Z,1.35
2023-05-19T20:49:35.773Z,1.45
2023-05-19T20:52:02.464Z,1.15
2023-05-19T20:54:29.039Z,1.10
2023-05-19T20:56:55.767Z,1.10
2023-05-19T20:59:22.378Z,1.13
2023-05-19T21:01:49.061Z,1.30
2023-05-19T21:04:15.738Z,1.38
2023-05-19T21:06:42.542Z,1.25
2023-05-19T21:09:10.515Z,1.20
2023-05-19T21:11:37.124Z,1.30
2023-05-19T21:14:04.298Z,1.52
2023-05-19T21:16:31.906Z,1.40
2023-05-19T21:18:58.553Z,1.20
2023-05-19T21:21:28.375Z,1.23
2023-05-19T21:23:54.990Z,1.20
2023-05-19T21:26:22.117Z,1.25
2023-05-19T21:28:48.759Z,1.08
2023-05-19T21:31:15.476Z,1.25
2023-05-19T21:33:42.158Z,1.52
2023-05-19T21:36:08.747Z,1.13
2023-05-19T21:38:35.318Z,1.30
2023-05-19T21:41:01.992Z,1.30
2023-05-19T21:43:28.606Z,1.40
2023-05-19T21:45:55.469Z,1.25
2023-05-19T21:48:22.113Z,1.40
2023-05-19T21:50:55.358Z,1.05
2023-05-19T21:53:22.097Z,1.63
2023-05-19T21:55:48.859Z,1.27
2023-05-19T21:58:15.507Z,1.10
2023-05-19T22:00:42.192Z,1.10
2023-05-19T22:03:08.932Z,1.15
2023-05-19T22:05:38.066Z,1.30
2023-05-19T22:08:04.907Z,1.13
2023-05-19T22:10:32.048Z,1.27
2023-05-19T22:12:58.845Z,1.20
2023-05-19T22:15:26.636Z,1.27
2023-05-19T22:17:53.304Z,1.20
2023-05-19T22:20:20.052Z,1.20
2023-05-19T22:22:46.595Z,1.15
2023-05-19T22:25:13.249Z,1.20
2023-05-19T22:27:39.901Z,1.40
2023-05-19T22:30:07.352Z,1.20
2023-05-19T22:32:35.134Z,1.40
2023-05-19T22:35:01.925Z,1.33
2023-05-19T22:37:29.041Z,1.48
2023-05-19T22:39:55.694Z,1.17
2023-05-19T22:42:22.320Z,1.02
2023-05-19T22:44:48.982Z,1.20
2023-05-19T22:47:15.926Z,1.30
2023-05-19T22:49:42.994Z,1.42
2023-05-19T22:52:11.017Z,1.25
2023-05-19T22:54:38.148Z,1.20
2023-05-19T22:57:05.200Z,1.30
2023-05-19T22:59:31.862Z,1.10
2023-05-19T23:01:58.449Z,0.98
2023-05-19T23:04:25.180Z,1.13
2023-05-19T23:06:51.916Z,1.30
2023-05-19T23:09:18.566Z,1.30
2023-05-19T23:11:46.063Z,1.40
2023-05-19T23:14:12.678Z,1.27
2023-05-19T23:16:39.319Z,1.50
2023-05-19T23:19:06.228Z,1.20
2023-05-19T23:21:33.138Z,1.33
2023-05-19T23:24:00.024Z,1.40
2023-05-19T23:26:27.048Z,1.17
2023-05-19T23:28:53.614Z,1.50
2023-05-19T23:31:20.331Z,1.55
2023-05-19T23:33:47.032Z,1.45
2023-05-19T23:36:13.776Z,1.30
2023-05-19T23:38:40.387Z,1.45
2023-05-19T23:41:07.106Z,1.42
2023-05-19T23:43:33.828Z,1.23
2023-05-19T23:46:01.185Z,1.70
2023-05-19T23:48:31.500Z,1.30
2023-05-19T23:50:58.805Z,1.10
2023-05-19T23:53:25.590Z,1.30
2023-05-19T23:55:52.455Z,1.25
2023-05-19T23:58:19.257Z,1.48
